Time;durP1;ratioP1;P1;durP2;ratioP2;P2;SDS_P1;SDS_P2;PMS_P1;PMS_P2;Temp;Humidity;BMP_temperature;BMP_pressure;BME280_temperature;BME280_humidity;BME280_pressure;Samples;Min_cycle;Max_cycle;Signal;HPM_P1;HPM_P2
2022/05/29 00:02:17;;;;;;;2.13;1.38;;;13.50;86.00;;;;;;4993772;28;20049;-75
2022/05/29 00:04:42;;;;;;;2.35;1.00;;;13.60;85.80;;;;;;4997498;28;20718;-76
2022/05/29 00:07:14;;;;;;;1.30;1.00;;;13.70;85.80;;;;;;4995203;28;20057;-76
2022/05/29 00:09:43;;;;;;;1.90;0.82;;;13.80;85.40;;;;;;5003249;28;20175;-75
2022/05/29 00:12:10;;;;;;;1.40;1.17;;;13.80;85.50;;;;;;4996911;28;20025;-75
2022/05/29 00:14:37;;;;;;;3.40;1.00;;;13.80;85.80;;;;;;5000751;28;20030;-75
2022/05/29 00:17:04;;;;;;;2.20;1.15;;;13.60;85.60;;;;;;4998353;28;20076;-75
2022/05/29 00:19:31;;;;;;;;;;;13.50;86.00;;;;;;5003208;28;20022;-76
2022/05/29 00:21:58;;;;;;;2.28;1.10;;;13.30;86.80;;;;;;5001805;28;19905;-75
2022/05/29 00:24:30;;;;;;;3.08;1.27;;;13.20;86.50;;;;;;4998211;28;20034;-75
2022/05/29 00:27:01;;;;;;;4.43;1.13;;;13.30;86.80;;;;;;5000920;28;20018;-75
2022/05/29 00:29:28;;;;;;;2.42;1.23;;;13.30;87.70;;;;;;5001531;28;20029;-75
2022/05/29 00:31:55;;;;;;;;;;;13.20;88.40;;;;;;5002415;28;20195;-75
2022/05/29 00:34:22;;;;;;;3.65;1.35;;;13.20;88.60;;;;;;4996571;28;19962;-75
2022/05/29 00:36:47;;;;;;;2.90;1.20;;;13.20;88.40;;;;;;4996837;28;20034;-75
2022/05/29 00:39:15;;;;;;;1.42;1.20;;;13.20;88.60;;;;;;4995796;28;20434;-75
2022/05/29 00:41:42;;;;;;;1.40;1.15;;;13.20;88.90;;;;;;4999757;28;20034;-76
2022/05/29 00:44:20;;;;;;;3.55;1.30;;;13.10;89.10;;;;;;4997764;28;20025;-76
2022/05/29 00:47:01;;;;;;;2.10;1.50;;;13.00;89.70;;;;;;5002842;28;20041;-75
2022/05/29 00:49:35;;;;;;;4.57;1.27;;;13.00;90.20;;;;;;5002373;28;20022;-75
2022/05/29 00:52:07;;;;;;;1.75;1.02;;;12.90;90.30;;;;;;4999038;28;20604;-75
2022/05/29 00:54:46;;;;;;;3.92;1.63;;;12.90;90.40;;;;;;5000811;28;20032;-75
2022/05/29 00:57:17;;;;;;;1.67;1.30;;;12.90;90.60;;;;;;4998038;28;20026;-75
2022/05/29 00:59:45;;;;;;;1.88;1.40;;;12.90;90.70;;;;;;5000333;28;20018;-75
2022/05/29 01:02:11;;;;;;;3.40;1.38;;;12.80;90.90;;;;;;4995536;28;20025;-76
2022/05/29 01:04:40;;;;;;;;;;;12.80;91.00;;;;;;4999300;28;20042;-75
2022/05/29 01:07:14;;;;;;;3.60;1.23;;;12.70;90.90;;;;;;4997447;28;19928;-76
2022/05/29 01:09:48;;;;;;;2.83;1.17;;;12.70;90.80;;;;;;5002071;28;20041;-75
2022/05/29 01:12:45;;;;;;;2.50;1.50;;;12.60;90.80;;;;;;4994725;28;20698;-76
2022/05/29 01:15:26;;;;;;;2.10;1.40;;;12.60;91.00;;;;;;4995716;28;20052;-75
2022/05/29 01:18:21;;;;;;;3.50;1.10;;;12.50;91.30;;;;;;4998022;28;20022;-75
2022/05/29 01:21:07;;;;;;;1.85;1.30;;;12.40;91.50;;;;;;5001357;28;20053;-75
2022/05/29 01:24:01;;;;;;;6.57;2.03;;;12.30;91.70;;;;;;5000045;28;20040;-76
2022/05/29 01:27:04;;;;;;;1.23;0.82;;;12.30;91.80;;;;;;4999455;28;20068;-75
2022/05/29 01:30:03;;;;;;;1.45;0.90;;;12.20;91.90;;;;;;4998199;28;20076;-75
2022/05/29 01:33:08;;;;;;;3.75;1.23;;;12.10;92.00;;;;;;4997173;28;20123;-76
2022/05/29 01:36:01;;;;;;;1.58;0.80;;;12.10;92.20;;;;;;5001384;28;20045;-75
2022/05/29 01:38:36;;;;;;;2.88;1.10;;;12.00;92.20;;;;;;4999419;28;20018;-75
2022/05/29 01:41:19;;;;;;;1.80;0.98;;;12.00;92.20;;;;;;4994061;28;20034;-75
2022/05/29 01:44:01;;;;;;;2.67;0.85;;;11.80;92.20;;;;;;4997035;28;20037;-75
2022/05/29 01:46:34;;;;;;;2.08;0.90;;;11.90;92.20;;;;;;4999371;28;20076;-75
2022/05/29 01:49:08;;;;;;;3.25;1.05;;;11.80;92.30;;;;;;4998255;28;20403;-76
2022/05/29 01:52:07;;;;;;;0.70;0.70;;;11.80;92.40;;;;;;5000679;28;20036;-75
2022/05/29 01:54:41;;;;;;;4.47;1.10;;;11.80;92.30;;;;;;4998002;28;20545;-75
2022/05/29 01:57:24;;;;;;;3.45;1.20;;;11.80;92.10;;;;;;4996370;28;20503;-75
2022/05/29 01:59:55;;;;;;;2.05;0.90;;;11.70;92.10;;;;;;4997102;28;20014;-75
2022/05/29 02:02:29;;;;;;;4.07;0.85;;;11.70;92.00;;;;;;4994928;28;20314;-75
2022/05/29 02:04:59;;;;;;;3.97;0.73;;;11.70;92.00;;;;;;4998272;28;20075;-76
2022/05/29 02:07:47;;;;;;;1.08;0.80;;;11.70;92.00;;;;;;4996862;28;20529;-75
2022/05/29 02:10:32;;;;;;;0.68;0.68;;;11.70;91.90;;;;;;4995198;28;20087;-75
2022/05/29 02:13:26;;;;;;;2.90;0.90;;;11.70;91.90;;;;;;4996877;28;20018;-76
2022/05/29 02:16:05;;;;;;;1.65;0.90;;;11.70;91.90;;;;;;4999789;28;20041;-75
2022/05/29 02:18:46;;;;;;;1.30;0.90;;;11.70;92.10;;;;;;5000174;28;20018;-75
2022/05/29 02:21:21;;;;;;;3.05;0.80;;;11.80;92.20;;;;;;4992474;28;20096;-76
2022/05/29 02:23:52;;;;;;;1.02;0.70;;;11.80;92.20;;;;;;4999586;28;20034;-74
2022/05/29 02:26:31;;;;;;;2.50;0.70;;;11.90;92.00;;;;;;4990953;28;20501;-75
2022/05/29 02:29:03;;;;;;;1.42;0.80;;;11.80;92.00;;;;;;4999336;28;20033;-75
2022/05/29 02:31:41;;;;;;;2.72;1.00;;;11.70;91.60;;;;;;4999361;28;20153;-76
2022/05/29 02:34:30;;;;;;;2.00;0.57;;;11.70;91.80;;;;;;4994336;28;21011;-75
2022/05/29 02:37:05;;;;;;;2.35;1.35;;;11.80;91.90;;;;;;4995574;28;20588;-75
2022/05/29 02:39:38;;;;;;;1.90;0.85;;;11.80;91.40;;;;;;4999695;28;20870;-75
2022/05/29 02:42:43;;;;;;;3.20;0.82;;;11.80;92.00;;;;;;4993822;28;20660;-75
2022/05/29 02:45:45;;;;;;;1.42;0.52;;;11.80;92.30;;;;;;4994565;28;20072;-75
2022/05/29 02:48:32;;;;;;;4.80;0.82;;;11.70;92.80;;;;;;4994280;28;20360;-75
2022/05/29 02:51:19;;;;;;;1.42;1.00;;;11.70;93.00;;;;;;4999489;28;20172;-75
2022/05/29 02:53:46;;;;;;;1.08;0.90;;;11.60;93.40;;;;;;4998570;28;20414;-75
2022/05/29 02:56:13;;;;;;;1.52;1.10;;;11.60;93.80;;;;;;4994408;28;20387;-75
2022/05/29 02:58:43;;;;;;;3.45;1.48;;;11.60;93.90;;;;;;4999747;28;20021;-75
2022/05/29 03:01:43;;;;;;;0.75;0.75;;;11.50;93.80;;;;;;4994418;28;20037;-75
2022/05/29 03:04:24;;;;;;;2.30;1.05;;;11.50;93.90;;;;;;4989960;28;20569;-76
2022/05/29 03:07:18;;;;;;;1.65;1.08;;;11.50;94.30;;;;;;4996462;28;20029;-75
2022/05/29 03:10:16;;;;;;;1.05;0.95;;;11.50;93.80;;;;;;4998048;28;20033;-75
2022/05/29 03:13:22;;;;;;;1.48;0.93;;;11.40;94.00;;;;;;4995527;28;20182;-75
2022/05/29 03:16:07;;;;;;;3.33;1.00;;;11.40;94.20;;;;;;5009117;28;20533;-76
2022/05/29 03:18:40;;;;;;;1.23;0.95;;;11.40;94.10;;;;;;4999922;28;20029;-75
2022/05/29 03:21:33;;;;;;;1.60;0.88;;;11.50;94.20;;;;;;4996103;28;20018;-75
2022/05/29 03:24:11;;;;;;;2.10;1.30;;;11.50;94.70;;;;;;4996465;28;21027;-75
2022/05/29 03:26:56;;;;;;;1.67;1.17;;;11.50;95.00;;;;;;4999524;28;20033;-75
2022/05/29 03:29:39;;;;;;;3.80;1.48;;;11.60;95.10;;;;;;4993493;28;20022;-75
2022/05/29 03:32:06;;;;;;;3.53;1.38;;;11.60;95.20;;;;;;4993411;28;20030;-76
2022/05/29 03:34:33;;;;;;;4.50;1.40;;;11.70;95.40;;;;;;4998238;28;20037;-75
2022/05/29 03:37:06;;;;;;;1.63;0.95;;;11.70;95.40;;;;;;4998808;28;20030;-75
2022/05/29 03:39:34;;;;;;;2.42;1.48;;;11.80;95.30;;;;;;4997606;28;20022;-75
2022/05/29 03:42:01;;;;;;;1.00;0.90;;;12.00;94.90;;;;;;4999833;28;20069;-75
2022/05/29 03:44:26;;;;;;;;;;;12.10;94.80;;;;;;4998829;28;20089;-75
2022/05/29 03:46:52;;;;;;;2.85;1.05;;;12.10;94.20;;;;;;5003561;28;19910;-75
2022/05/29 03:49:25;;;;;;;1.93;1.03;;;12.10;94.00;;;;;;4998453;28;20021;-75
2022/05/29 03:51:51;;;;;;;3.55;0.85;;;12.10;93.90;;;;;;5001705;28;20292;-75
2022/05/29 03:54:17;;;;;;;1.30;0.80;;;12.20;93.30;;;;;;4998589;28;20041;-75
2022/05/29 03:56:50;;;;;;;3.05;1.10;;;12.30;93.50;;;;;;5003576;28;20707;-76
2022/05/29 03:59:19;;;;;;;1.20;0.93;;;12.40;93.50;;;;;;4997860;28;20443;-76
2022/05/29 04:01:49;;;;;;;5.40;1.00;;;12.50;93.70;;;;;;5003017;28;20100;-76
2022/05/29 04:04:21;;;;;;;1.80;0.60;;;12.50;93.70;;;;;;4995833;28;20106;-76
2022/05/29 04:06:50;;;;;;;2.00;0.90;;;12.60;93.80;;;;;;5001593;28;20045;-76
2022/05/29 04:12:05;;;;;;;2.05;0.90;;;12.80;93.30;;;;;;5000806;28;20041;-75
2022/05/29 04:14:36;;;;;;;2.92;1.00;;;12.80;93.80;;;;;;4999626;28;20024;-75
2022/05/29 04:17:05;;;;;;;3.28;1.15;;;12.80;93.90;;;;;;5002991;28;20104;-75
2022/05/29 04:19:32;;;;;;;3.33;1.13;;;12.90;94.20;;;;;;4999237;28;20036;-75
2022/05/29 04:22:05;;;;;;;1.65;1.13;;;13.00;94.10;;;;;;5000987;28;20029;-75
2022/05/29 04:24:30;;;;;;;2.00;0.98;;;13.00;93.60;;;;;;4996116;28;20022;-75
2022/05/29 04:27:03;;;;;;;1.37;1.00;;;13.10;93.00;;;;;;5000975;28;20022;-75
2022/05/29 04:29:32;;;;;;;2.65;1.20;;;13.30;92.20;;;;;;4997155;28;20736;-75
2022/05/29 04:34:58;;;;;;;3.30;1.10;;;13.60;92.10;;;;;;5001305;28;20029;-75
2022/05/29 04:37:28;;;;;;;2.47;1.23;;;13.70;91.70;;;;;;4993220;28;20113;-75
2022/05/29 05:06:58;;;;;;;1.05;0.95;;;14.00;91.40;;;;;;4999337;28;20080;-75
2022/05/29 05:09:27;;;;;;;1.63;1.10;;;14.20;91.90;;;;;;4993892;28;20116;-74
2022/05/29 05:11:54;;;;;;;1.95;1.40;;;14.30;91.60;;;;;;5000983;28;20072;-75
2022/05/29 05:14:22;;;;;;;1.95;1.10;;;14.30;89.20;;;;;;4992309;28;20800;-73
2022/05/29 05:16:49;;;;;;;2.60;1.17;;;14.40;90.90;;;;;;4997018;28;20057;-74
2022/05/29 05:19:15;;;;;;;1.77;1.30;;;14.30;90.00;;;;;;4996040;28;20032;-74
2022/05/29 05:21:42;;;;;;;2.67;1.08;;;14.30;87.90;;;;;;5001222;28;20028;-73
2022/05/29 05:24:08;;;;;;;2.70;1.00;;;14.20;88.30;;;;;;5000573;28;20026;-73
2022/05/29 05:26:38;;;;;;;1.10;1.00;;;14.30;86.90;;;;;;4997230;28;20030;-73
2022/05/29 05:29:08;;;;;;;1.25;1.05;;;14.40;86.80;;;;;;4999266;28;20395;-75
2022/05/29 05:31:34;;;;;;;1.40;1.30;;;14.40;86.80;;;;;;4997224;28;20022;-75
2022/05/29 05:34:01;;;;;;;2.77;1.23;;;14.70;87.10;;;;;;4998653;28;20084;-75
2022/05/29 05:36:28;;;;;;;2.40;1.55;;;14.90;85.30;;;;;;4995288;28;20097;-75
2022/05/29 05:38:54;;;;;;;;;;;15.00;86.20;;;;;;4999873;28;20045;-75
2022/05/29 05:41:22;;;;;;;1.92;1.35;;;15.10;84.30;;;;;;4996652;28;19905;-75
2022/05/29 05:44:02;;;;;;;3.03;1.38;;;15.10;83.10;;;;;;4999657;28;20033;-75
2022/05/29 05:46:34;;;;;;;4.05;1.40;;;15.20;84.80;;;;;;4996018;28;20093;-75
2022/05/29 05:49:01;;;;;;;2.47;1.50;;;15.40;83.30;;;;;;4998293;28;20148;-75
2022/05/29 05:51:26;;;;;;;1.55;1.08;;;16.00;79.80;;;;;;4995723;28;20022;-76
2022/05/29 05:53:52;;;;;;;2.08;1.58;;;17.30;76.90;;;;;;5001129;28;20046;-75
2022/05/29 05:56:19;;;;;;;2.80;1.20;;;19.20;72.30;;;;;;4997557;28;20033;-76
2022/05/29 05:58:46;;;;;;;2.33;1.10;;;20.80;69.40;;;;;;5004399;28;20467;-75
2022/05/29 06:01:15;;;;;;;2.65;1.10;;;22.50;63.90;;;;;;5000927;28;20095;-76
2022/05/29 06:03:43;;;;;;;1.27;0.93;;;24.70;59.40;;;;;;4999943;28;20029;-75
2022/05/29 06:06:09;;;;;;;3.47;1.52;;;26.30;55.10;;;;;;5000605;28;20116;-75
2022/05/29 06:08:35;;;;;;;1.30;1.20;;;27.50;50.20;;;;;;4995644;28;20117;-75
2022/05/29 06:11:01;;;;;;;4.35;1.02;;;27.40;49.50;;;;;;4998682;28;20036;-76
2022/05/29 06:13:29;;;;;;;1.83;1.05;;;26.20;50.00;;;;;;4995940;28;20064;-75
2022/05/29 06:16:05;;;;;;;2.58;1.00;;;22.90;51.30;;;;;;4999853;28;20072;-75
2022/05/29 06:18:41;;;;;;;2.00;1.13;;;22.00;54.50;;;;;;4996992;28;20157;-75
2022/05/29 06:21:07;;;;;;;1.25;1.10;;;22.50;53.90;;;;;;5000593;28;20031;-75
2022/05/29 06:23:34;;;;;;;2.78;1.40;;;24.20;53.60;;;;;;4996564;28;20648;-75
2022/05/29 06:26:05;;;;;;;3.30;1.30;;;25.90;50.50;;;;;;4998352;28;20079;-75
2022/05/29 06:28:33;;;;;;;1.58;1.25;;;27.60;47.90;;;;;;4995790;28;20025;-75
2022/05/29 06:31:09;;;;;;;1.50;1.02;;;28.80;46.30;;;;;;4999077;28;20148;-76
2022/05/29 06:33:37;;;;;;;2.47;1.00;;;27.90;44.30;;;;;;4993709;28;20010;-76
2022/05/29 06:36:12;;;;;;;3.03;1.10;;;28.60;44.90;;;;;;4998431;28;20026;-76
2022/05/29 06:38:42;;;;;;;3.00;1.20;;;29.50;43.70;;;;;;4997593;28;20064;-75
2022/05/29 06:41:17;;;;;;;1.80;1.08;;;28.90;41.90;;;;;;4999291;28;20542;-75
2022/05/29 06:43:47;;;;;;;3.05;1.50;;;27.80;43.10;;;;;;4998854;28;20025;-75
2022/05/29 06:46:13;;;;;;;1.90;1.30;;;24.60;44.90;;;;;;5000177;28;20171;-75
2022/05/29 06:48:40;;;;;;;3.60;1.30;;;21.90;49.80;;;;;;4994546;28;20065;-75
2022/05/29 06:51:14;;;;;;;4.78;1.35;;;20.50;52.20;;;;;;4997888;28;20038;-74
2022/05/29 06:53:40;;;;;;;2.20;1.30;;;20.50;54.50;;;;;;4996301;28;20014;-75
2022/05/29 06:56:08;;;;;;;3.10;1.10;;;19.60;55.20;;;;;;4999042;28;20168;-75
2022/05/29 06:58:35;;;;;;;2.30;1.55;;;19.50;57.00;;;;;;4993981;28;20168;-75
2022/05/29 07:07:04;;;;;;;2.22;1.40;;;18.40;58.80;;;;;;4991523;28;20057;-75
2022/05/29 07:09:37;;;;;;;3.28;1.17;;;18.00;60.60;;;;;;4998865;28;20364;-75
2022/05/29 07:12:09;;;;;;;2.63;1.45;;;17.30;60.30;;;;;;4998818;28;20021;-76
2022/05/29 07:14:39;;;;;;;3.08;1.27;;;17.00;62.10;;;;;;4994414;28;20048;-75
2022/05/29 07:17:06;;;;;;;1.33;1.10;;;16.90;63.30;;;;;;4997366;28;20076;-75
2022/05/29 07:19:32;;;;;;;3.40;1.45;;;16.90;64.10;;;;;;4999017;28;20049;-74
2022/05/29 07:22:00;;;;;;;;;;;17.00;63.80;;;;;;4997171;28;20713;-75
2022/05/29 07:24:30;;;;;;;2.28;1.30;;;16.90;65.00;;;;;;4998473;28;20364;-74
2022/05/29 07:27:03;;;;;;;3.05;1.30;;;16.90;65.10;;;;;;4994888;28;20029;-75
2022/05/29 07:29:31;;;;;;;5.07;1.70;;;16.80;65.80;;;;;;4997132;28;20108;-75
2022/05/29 07:31:58;;;;;;;2.45;1.35;;;16.70;66.40;;;;;;4993563;28;20022;-75
2022/05/29 07:34:24;;;;;;;3.60;1.35;;;16.90;67.00;;;;;;4998429;28;20032;-75
2022/05/29 07:36:52;;;;;;;2.22;1.27;;;17.80;65.70;;;;;;4995489;28;20106;-75
2022/05/29 07:39:20;;;;;;;3.53;1.30;;;19.60;61.20;;;;;;4999477;28;20111;-75
2022/05/29 07:44:30;;;;;;;2.63;1.60;;;21.80;57.00;;;;;;4996368;28;20041;-75
2022/05/29 07:46:59;;;;;;;2.63;1.75;;;21.40;56.70;;;;;;4994508;28;20022;-74
2022/05/29 07:49:29;;;;;;;2.75;1.92;;;20.50;57.40;;;;;;4997393;28;20018;-75
2022/05/29 07:51:56;;;;;;;3.35;1.75;;;20.30;57.70;;;;;;4994631;28;20669;-75
2022/05/29 07:54:25;;;;;;;5.22;1.80;;;20.00;58.00;;;;;;4997272;28;20045;-74
2022/05/29 07:56:51;;;;;;;4.78;2.00;;;20.60;57.80;;;;;;4994665;28;20018;-76
2022/05/29 07:59:19;;;;;;;4.40;1.42;;;20.30;58.60;;;;;;4997974;28;20797;-75
2022/05/29 08:01:45;;;;;;;1.77;1.42;;;20.60;57.50;;;;;;4995498;28;20661;-75
2022/05/29 08:04:11;;;;;;;2.47;1.10;;;19.80;56.70;;;;;;4996829;28;20499;-75
2022/05/29 08:06:37;;;;;;;1.45;0.80;;;19.50;56.10;;;;;;4994477;28;20041;-76
2022/05/29 08:09:07;;;;;;;2.35;1.00;;;19.40;56.80;;;;;;4998601;28;20070;-75
2022/05/29 08:11:33;;;;;;;3.67;1.00;;;19.00;56.80;;;;;;4996183;28;20491;-75
2022/05/29 08:14:01;;;;;;;3.22;0.90;;;18.00;57.90;;;;;;4997197;28;20029;-75
2022/05/29 08:16:28;;;;;;;3.33;1.05;;;17.70;59.60;;;;;;4996691;28;20022;-76
2022/05/29 08:18:57;;;;;;;2.00;1.00;;;17.50;59.80;;;;;;4994362;28;20104;-75
2022/05/29 08:21:25;;;;;;;1.33;1.00;;;17.50;58.50;;;;;;4998365;28;20068;-75
2022/05/29 08:32:04;;;;;;;1.98;0.80;;;17.10;57.70;;;;;;5002311;28;20502;-75
2022/05/29 08:34:30;;;;;;;2.63;0.90;;;16.90;59.00;;;;;;5003039;28;20032;-75
2022/05/29 08:36:56;;;;;;;3.80;1.10;;;16.70;58.10;;;;;;4997475;28;20026;-75
2022/05/29 08:39:26;;;;;;;2.60;1.05;;;16.50;59.90;;;;;;5001979;28;20045;-75
2022/05/29 08:41:56;;;;;;;2.60;0.88;;;16.50;60.70;;;;;;4998031;28;20030;-76
2022/05/29 08:44:48;;;;;;;2.15;0.80;;;16.60;61.70;;;;;;5001543;28;20046;-75
2022/05/29 08:47:15;;;;;;;2.40;1.20;;;16.80;61.40;;;;;;5001644;28;20483;-75
2022/05/29 08:49:46;;;;;;;4.10;1.27;;;16.90;60.50;;;;;;4997242;28;20029;-76
2022/05/29 08:52:18;;;;;;;4.85;0.90;;;16.90;60.50;;;;;;5001263;28;20037;-78
2022/05/29 08:55:06;;;;;;;4.03;1.10;;;16.90;61.60;;;;;;4995087;28;20026;-75
2022/05/29 08:57:40;;;;;;;;;;;16.60;61.40;;;;;;4999712;28;20028;-74
2022/05/29 09:00:38;;;;;;;1.88;1.08;;;16.60;62.00;;;;;;5001518;28;19916;-75
2022/05/29 09:03:44;;;;;;;1.33;1.00;;;16.50;61.90;;;;;;4999632;28;20025;-75
2022/05/29 09:06:28;;;;;;;3.35;1.25;;;16.50;61.20;;;;;;4999651;28;20080;-75
2022/05/29 09:09:11;;;;;;;3.25;0.90;;;16.70;62.10;;;;;;4992793;28;20084;-75
2022/05/29 09:11:44;;;;;;;5.82;1.10;;;16.90;60.50;;;;;;4996837;28;20094;-75
2022/05/29 09:14:42;;;;;;;3.40;1.10;;;16.60;61.10;;;;;;4999285;28;20032;-75
2022/05/29 09:17:29;;;;;;;1.73;0.82;;;17.00;62.10;;;;;;4999568;28;20030;-75
2022/05/29 09:20:00;;;;;;;3.00;1.15;;;17.00;59.90;;;;;;4996653;28;20394;-75
2022/05/29 09:22:31;;;;;;;3.03;1.23;;;16.70;60.00;;;;;;4999658;28;20042;-75
2022/05/29 09:25:05;;;;;;;2.30;1.10;;;16.60;59.00;;;;;;4996590;28;20045;-74
2022/05/29 09:27:38;;;;;;;3.78;1.02;;;16.50;59.40;;;;;;5000702;28;20387;-76
2022/05/29 09:30:06;;;;;;;4.25;0.85;;;16.30;60.40;;;;;;4999341;28;20041;-75
2022/05/29 09:32:35;;;;;;;0.88;0.70;;;16.30;61.00;;;;;;5000704;28;20018;-75
2022/05/29 09:35:24;;;;;;;3.60;1.00;;;16.30;60.90;;;;;;4999161;28;20025;-75
2022/05/29 09:38:29;;;;;;;1.85;0.93;;;16.30;60.90;;;;;;4992369;28;20498;-74
2022/05/29 09:41:16;;;;;;;2.88;1.10;;;16.30;60.70;;;;;;4995521;28;20132;-75
2022/05/29 09:44:04;;;;;;;2.70;1.00;;;16.10;61.70;;;;;;4996009;28;20162;-75
2022/05/29 09:46:34;;;;;;;2.75;1.45;;;16.10;62.80;;;;;;4997098;28;20033;-75
2022/05/29 09:52:19;;;;;;;1.30;1.20;;;15.90;62.00;;;;;;4995877;28;20036;-74
2022/05/29 09:55:12;;;;;;;3.90;1.23;;;16.00;62.40;;;;;;4994842;28;20025;-75
2022/05/29 09:57:43;;;;;;;3.47;1.15;;;16.20;61.70;;;;;;4995289;28;20101;-75
2022/05/29 10:00:25;;;;;;;3.80;1.00;;;16.30;62.60;;;;;;4999874;28;20037;-75
2022/05/29 10:02:51;;;;;;;1.10;0.90;;;16.30;61.90;;;;;;4993269;28;20548;-75
2022/05/29 10:05:38;;;;;;;2.72;1.48;;;16.20;61.90;;;;;;4998240;28;20041;-75
2022/05/29 10:08:26;;;;;;;6.68;1.10;;;16.40;61.30;;;;;;4997275;28;20037;-75
2022/05/29 10:11:12;;;;;;;;;;;16.60;62.20;;;;;;4994411;28;20022;-76
2022/05/29 10:13:47;;;;;;;4.50;1.30;;;16.60;62.70;;;;;;4994179;28;19916;-75
2022/05/29 10:16:38;;;;;;;2.88;1.40;;;16.80;61.90;;;;;;5000297;28;20026;-75
2022/05/29 10:19:16;;;;;;;2.42;1.00;;;16.60;61.20;;;;;;5000230;28;20022;-75
2022/05/29 10:21:50;;;;;;;2.72;1.42;;;16.80;61.90;;;;;;4994393;28;20029;-76
2022/05/29 10:24:37;;;;;;;3.28;1.08;;;16.60;61.00;;;;;;4996040;28;20022;-75
2022/05/29 10:27:06;;;;;;;2.25;1.10;;;16.60;61.00;;;;;;4997712;28;20034;-75
2022/05/29 10:29:39;;;;;;;2.22;1.35;;;16.70;61.70;;;;;;4999581;28;20061;-75
2022/05/29 10:32:08;;;;;;;5.50;1.92;;;16.70;61.30;;;;;;4998724;28;20026;-75
2022/05/29 10:34:39;;;;;;;1.98;0.90;;;16.70;62.10;;;;;;4997923;28;20022;-76
2022/05/29 10:37:36;;;;;;;2.13;1.20;;;16.90;61.90;;;;;;4998185;28;20029;-75
2022/05/29 10:40:24;;;;;;;2.73;1.10;;;16.70;61.80;;;;;;4999509;28;20022;-75
2022/05/29 10:43:00;;;;;;;1.17;1.00;;;16.50;62.50;;;;;;4991695;28;20084;-75
2022/05/29 10:46:02;;;;;;;4.22;1.20;;;16.60;62.60;;;;;;4998023;28;20018;-75
2022/05/29 10:48:48;;;;;;;1.98;1.10;;;16.80;63.20;;;;;;4994195;28;20467;-75
2022/05/29 10:51:55;;;;;;;1.48;1.00;;;16.70;63.40;;;;;;4997652;28;20383;-75
2022/05/29 10:54:46;;;;;;;1.38;0.82;;;16.70;63.00;;;;;;4996120;28;20114;-75
2022/05/29 10:57:58;;;;;;;2.88;1.10;;;16.80;63.80;;;;;;4998320;28;20102;-75
2022/05/29 11:00:45;;;;;;;1.40;1.17;;;17.00;61.10;;;;;;4985080;28;20463;-75
2022/05/29 11:03:47;;;;;;;2.60;1.00;;;16.80;62.10;;;;;;4996488;28;20109;-75
2022/05/29 11:06:54;;;;;;;2.38;1.02;;;16.40;62.90;;;;;;4996579;28;20199;-76
2022/05/29 11:09:48;;;;;;;1.13;1.00;;;16.10;62.80;;;;;;5004404;28;20747;-75
2022/05/29 11:12:37;;;;;;;2.30;1.08;;;16.10;62.70;;;;;;4995407;28;20057;-75
2022/05/29 11:15:22;;;;;;;3.05;1.02;;;16.40;63.00;;;;;;4998108;28;21124;-75
2022/05/29 11:17:56;;;;;;;2.78;1.00;;;16.60;62.90;;;;;;4992475;28;20163;-75
2022/05/29 11:21:05;;;;;;;4.43;1.10;;;16.60;62.10;;;;;;4996431;28;20013;-75
2022/05/29 11:23:54;;;;;;;3.45;1.05;;;16.90;62.40;;;;;;4996989;28;20036;-74
2022/05/29 11:26:42;;;;;;;1.55;0.95;;;17.10;61.60;;;;;;4995047;28;20030;-75
2022/05/29 11:29:38;;;;;;;2.30;1.23;;;17.20;60.20;;;;;;4999530;28;20679;-75
2022/05/29 11:32:04;;;;;;;2.15;0.88;;;17.50;60.20;;;;;;4999069;28;20084;-75
2022/05/29 11:35:00;;;;;;;3.17;1.07;;;17.50;59.60;;;;;;4998418;28;20034;-75
2022/05/29 11:37:52;;;;;;;1.27;1.00;;;17.40;59.90;;;;;;4996789;28;20583;-75
2022/05/29 11:40:55;;;;;;;2.20;1.20;;;17.40;60.40;;;;;;4996591;28;20053;-75
2022/05/29 11:43:27;;;;;;;2.60;1.27;;;17.80;59.60;;;;;;4994710;28;20030;-75
2022/05/29 11:52:00;;;;;;;3.50;0.90;;;18.00;58.90;;;;;;4993009;28;20088;-75
2022/05/29 11:54:47;;;;;;;2.45;1.10;;;18.20;59.20;;;;;;4995769;28;20698;-75
2022/05/29 11:57:27;;;;;;;1.63;0.93;;;18.00;57.30;;;;;;4999512;28;20022;-76
2022/05/29 12:00:03;;;;;;;3.08;1.30;;;17.90;60.30;;;;;;4992678;28;20018;-75
2022/05/29 12:02:58;;;;;;;1.48;0.90;;;17.40;60.20;;;;;;4996595;28;20109;-75
2022/05/29 12:05:36;;;;;;;2.83;1.02;;;17.60;61.50;;;;;;5001008;28;20026;-76
2022/05/29 12:08:20;;;;;;;1.05;0.75;;;17.50;60.90;;;;;;5000329;28;20084;-75
2022/05/29 12:11:17;;;;;;;3.72;0.88;;;17.30;61.00;;;;;;4997696;28;20057;-75
2022/05/29 12:14:06;;;;;;;2.38;1.00;;;17.30;61.40;;;;;;4991807;28;20130;-75
2022/05/29 12:16:36;;;;;;;3.42;1.20;;;17.50;60.60;;;;;;5000844;28;20030;-75
2022/05/29 12:19:13;;;;;;;2.83;1.77;;;17.40;60.70;;;;;;5001164;28;20029;-75
2022/05/29 12:22:04;;;;;;;2.15;0.90;;;17.60;60.70;;;;;;4997477;28;20029;-75
2022/05/29 12:24:34;;;;;;;1.75;1.00;;;17.50;60.50;;;;;;5000030;28;20117;-75
2022/05/29 12:27:09;;;;;;;2.05;1.10;;;17.50;60.60;;;;;;4998000;28;20025;-75
2022/05/29 12:29:47;;;;;;;3.90;1.20;;;17.40;60.70;;;;;;4998676;28;20026;-75
2022/05/29 12:32:26;;;;;;;1.52;0.82;;;17.10;61.50;;;;;;4997593;28;20033;-75
2022/05/29 12:35:07;;;;;;;1.50;1.23;;;16.90;62.70;;;;;;4992692;28;20014;-75
2022/05/29 12:38:01;;;;;;;2.17;1.10;;;17.00;61.30;;;;;;5001733;28;20033;-75
2022/05/29 12:40:45;;;;;;;2.58;1.00;;;16.90;62.40;;;;;;4999888;28;20068;-75
2022/05/29 12:44:06;;;;;;;2.85;1.48;;;16.90;62.90;;;;;;5002137;28;20821;-75
2022/05/29 12:46:42;;;;;;;3.38;1.30;;;16.90;63.50;;;;;;4980293;28;20026;-75
2022/05/29 12:49:34;;;;;;;3.30;0.90;;;16.80;63.20;;;;;;4999313;28;20073;-75
2022/05/29 12:52:17;;;;;;;2.22;1.17;;;16.80;63.80;;;;;;4994374;28;20029;-75
2022/05/29 12:55:20;;;;;;;4.15;1.17;;;16.80;63.60;;;;;;5000619;28;20014;-76
2022/05/29 12:58:11;;;;;;;2.47;0.90;;;16.60;63.40;;;;;;4993933;28;20049;-75
2022/05/29 13:01:03;;;;;;;5.70;1.05;;;16.40;63.90;;;;;;4997762;28;20101;-75
2022/05/29 13:03:55;;;;;;;2.13;0.80;;;16.30;64.90;;;;;;4999324;28;20066;-75
2022/05/29 13:06:47;;;;;;;2.38;0.90;;;16.40;65.90;;;;;;4997637;28;20680;-74
2022/05/29 13:09:43;;;;;;;2.65;1.52;;;16.40;68.40;;;;;;4999931;28;20139;-75
2022/05/29 13:12:17;;;;;;;1.20;1.10;;;16.10;69.70;;;;;;4999973;28;20052;-75
2022/05/29 13:14:54;;;;;;;2.50;1.00;;;16.10;71.00;;;;;;4996862;28;20022;-76
2022/05/29 13:17:33;;;;;;;;;;;16.00;71.10;;;;;;4998889;28;20505;-74
2022/05/29 13:20:02;;;;;;;2.42;1.02;;;15.90;72.10;;;;;;4995564;28;19912;-75
2022/05/29 13:22:49;;;;;;;4.88;1.00;;;15.90;73.90;;;;;;4999929;28;20136;-75
2022/05/29 13:25:44;;;;;;;3.00;1.15;;;15.90;78.50;;;;;;4997145;28;20080;-75
2022/05/29 13:28:31;;;;;;;3.95;1.50;;;15.80;76.00;;;;;;4994689;28;20050;-75
2022/05/29 13:31:12;;;;;;;1.57;1.13;;;15.80;75.60;;;;;;4995206;28;20026;-75
2022/05/29 13:33:42;;;;;;;1.92;1.15;;;15.80;77.20;;;;;;4998398;28;20113;-75
2022/05/29 13:36:10;;;;;;;2.83;1.20;;;15.80;78.70;;;;;;5000729;28;20098;-75
2022/05/29 13:38:45;;;;;;;3.25;1.05;;;15.80;78.30;;;;;;4998946;28;20656;-75
2022/05/29 13:41:50;;;;;;;1.60;1.23;;;15.80;78.90;;;;;;4999639;28;20025;-75
2022/05/29 13:44:40;;;;;;;2.75;1.40;;;15.90;81.80;;;;;;4993459;28;20121;-75
2022/05/29 13:47:22;;;;;;;2.83;1.30;;;16.00;83.70;;;;;;5006098;28;20026;-75
2022/05/29 13:50:13;;;;;;;2.85;1.40;;;16.00;87.00;;;;;;5000091;28;20026;-75
2022/05/29 13:52:58;;;;;;;2.90;1.80;;;15.90;82.20;;;;;;4997962;28;20026;-75
2022/05/29 13:55:32;;;;;;;1.50;1.13;;;15.80;82.00;;;;;;4998854;28;20071;-74
2022/05/29 14:03:58;;;;;;;1.65;1.15;;;15.60;86.90;;;;;;4995172;28;20121;-68
2022/05/29 14:06:35;;;;;;;4.53;1.50;;;15.80;86.60;;;;;;4992867;28;20060;-69
2022/05/29 14:09:23;;;;;;;1.90;1.40;;;16.00;84.40;;;;;;4990776;28;20040;-69
2022/05/29 14:11:57;;;;;;;1.58;1.27;;;16.00;85.70;;;;;;4982158;28;20044;-69
2022/05/29 14:14:50;;;;;;;1.13;1.02;;;15.90;87.20;;;;;;4995527;28;20796;-78
2022/05/29 14:17:18;;;;;;;2.00;1.08;;;15.70;87.40;;;;;;4997823;28;20491;-77
2022/05/29 14:23:32;;;;;;;2.20;1.25;;;15.90;93.30;;;;;;4992241;28;20042;-77
2022/05/29 14:26:05;;;;;;;3.30;1.50;;;16.00;90.40;;;;;;4992010;28;20022;-77
2022/05/29 14:28:52;;;;;;;3.45;1.90;;;15.80;88.40;;;;;;4997471;28;20069;-79
2022/05/29 14:31:56;;;;;;;2.75;1.70;;;15.60;90.10;;;;;;4994736;28;20046;-77
2022/05/29 14:35:00;;;;;;;3.20;2.28;;;15.60;91.30;;;;;;4996939;28;20022;-77
2022/05/29 14:37:50;;;;;;;2.08;1.30;;;15.70;91.70;;;;;;4996344;28;20047;-78
2022/05/29 14:40:26;;;;;;;3.40;1.55;;;15.70;91.50;;;;;;4995176;28;20053;-77
2022/05/29 14:42:54;;;;;;;2.60;1.50;;;15.60;91.10;;;;;;4991249;28;20023;-78
2022/05/29 14:45:29;;;;;;;3.83;1.50;;;15.50;91.70;;;;;;4998155;28;20022;-77
2022/05/29 14:48:19;;;;;;;3.70;2.40;;;15.60;93.30;;;;;;4990769;28;20559;-78
2022/05/29 14:51:09;;;;;;;2.55;1.52;;;15.50;92.30;;;;;;4989517;28;20026;-78